Aeroporto :
LOGIN :

Iscrizione | Disclaimer

   EN    FR    IT 

 










Sommario :    VFR   VFR Marginale   IFR   IFR Intensivo   IFR Molto Intensivo
Visibilità : 
Base nubi : 
>= 8 km
>= 3000ft
5 / 8 km
1000 / 3000 ft
1500m / 5 km
500 / 1000 ft
800 / 1500m
200 / 500 ft
< 800m
< 200 ft
Simboli :   Temporali  Nebbia  Neve Forte  Precipitazioni Forti  Vento > 20 kt
SIGMETs :   Varie  Temporali  Ghiacco  Turbolenza  Onda orograficha  Ceneri Vulcaniche






- Altitudine del aeroporto : 412 ft
- Codice IATA : ADB


LTBJ - Adnan Menderes

ULTIMO METAR :
  • 280720Z 20005KT 160V230 CAVOK 24/14 Q1018 NOSIG RMK RWY16 18007KT

METARs OBSOLETI :
  • 280650Z 21005KT 170V240 CAVOK 22/14 Q1018 NOSIG RMK RWY16 19007KT 150V220
  • 280620Z 18006KT CAVOK 21/14 Q1018 NOSIG RMK RWY16 17009KT
  • 280550Z 16005KT 120V190 CAVOK 20/14 Q1018 NOSIG RMK RWY16 19009KT
  • 280520Z 18003KT 150V210 CAVOK 18/14 Q1018 NOSIG RMK RWY16 19008KT 160V220
  • 280450Z VRB02KT CAVOK 17/14 Q1018 NOSIG RMK RWY16 17006KT

TAF TAF LTBJ
Valido dal 28 a 06 ore il 29 a 06 ore UTC


280440Z 2806/2906 VRB02KT 9999 FEW030 BKN100
TEMPO 2810/2814 18012KT
BECMG 2818/2820 CAVOK



MetMap, La meteo Aeronautica in un colpo d'occhio ! - Copyright ORBIFLY Dicembre 2007 - Disclaimer

ORBIFLY MET'MAP TEAM :

Programmazione e sviluppo : Alexandra Zaïnal
Concezione : Baudouin d'Aumeries
Aiuto per la programmazione : Marc-Olivier Méhu
Supporto tecnico e logistico : Manuel Goepfert
Aiuto per la traduzione : Arnaldo La Scala

Contatto : metmap@orbifly.com




FONTI E CREDITI :

   NOAA